Time,TemperatureF,DewpointF,PressureIn,WindDirection,WindDirectionDegrees,WindSpeedMPH,WindSpeedGustMPH,Humidity,HourlyPrecipIn,Conditions,Clouds,dailyrainin,SoftwareType,DateUTC
2013-02-08 00:01:00,48.0,47.2,29.98,NW,315,16.0,16.0,97,0.00,,---,0.00,VWS V14.00,2013-02-08 06:01:00,
2013-02-08 00:06:00,48.0,46.9,29.98,NNW,338,18.0,19.0,96,0.00,,---,0.00,VWS V14.00,2013-02-08 06:06:00,
2013-02-08 00:11:00,47.0,45.9,29.98,NW,315,13.0,18.0,96,0.00,,---,0.00,VWS V14.00,2013-02-08 06:11:00,
2013-02-08 00:16:00,47.0,45.9,29.98,NNW,338,17.0,19.0,96,0.00,,---,0.00,VWS V14.00,2013-02-08 06:16:00,
2013-02-08 00:21:00,47.0,45.9,29.98,NNW,338,13.0,16.0,96,0.00,,---,0.00,VWS V14.00,2013-02-08 06:21:00,
2013-02-08 00:26:00,47.0,45.9,29.98,NNW,338,9.0,15.0,96,0.00,,---,0.00,VWS V14.00,2013-02-08 06:26:00,
2013-02-08 00:31:00,47.0,45.9,29.98,NNW,338,15.0,19.0,96,0.00,,---,0.00,VWS V14.00,2013-02-08 06:31:00,
2013-02-08 00:36:00,47.0,45.9,29.98,NNW,338,12.0,17.0,96,0.00,,---,0.00,VWS V14.00,2013-02-08 06:36:00,
2013-02-08 00:41:00,47.0,45.7,29.98,NW,315,10.0,13.0,95,0.00,,---,0.00,VWS V14.00,2013-02-08 06:41:00,
2013-02-08 00:46:00,46.0,44.7,29.98,NNW,338,13.0,16.0,95,0.00,,---,0.00,VWS V14.00,2013-02-08 06:46:00,
2013-02-08 00:51:00,46.0,44.7,29.98,NNW,338,11.0,16.0,95,0.00,,---,0.00,VWS V14.00,2013-02-08 06:51:00,
2013-02-08 00:56:00,46.0,44.7,29.98,NNW,338,14.0,21.0,95,0.00,,---,0.00,VWS V14.00,2013-02-08 06:56:00,
2013-02-08 01:01:00,46.0,44.7,29.99,NW,315,11.0,20.0,95,0.00,,---,0.00,VWS V14.00,2013-02-08 07:01:00,
2013-02-08 01:06:00,46.0,44.7,29.99,NNW,338,14.0,18.0,95,0.00,,---,0.00,VWS V14.00,2013-02-08 07:06:00,
2013-02-08 01:11:00,46.0,44.7,29.99,NW,315,17.0,17.0,95,0.00,,---,0.00,VWS V14.00,2013-02-08 07:11:00,
2013-02-08 01:16:00,45.0,43.4,30.00,NW,315,11.0,15.0,94,0.00,,---,0.00,VWS V14.00,2013-02-08 07:16:00,
2013-02-08 01:21:00,45.0,43.7,30.00,NW,315,11.0,16.0,95,0.00,,---,0.00,VWS V14.00,2013-02-08 07:21:00,
2013-02-08 01:26:00,45.0,43.7,30.00,NNW,338,12.0,18.0,95,0.00,,---,0.00,VWS V14.00,2013-02-08 07:26:00,
2013-02-08 01:31:00,45.0,43.7,30.00,NW,315,19.0,23.0,95,0.00,,---,0.00,VWS V14.00,2013-02-08 07:31:00,
2013-02-08 01:36:00,44.0,42.7,30.01,NW,315,14.0,23.0,95,0.00,,---,0.00,VWS V14.00,2013-02-08 07:36:00,
2013-02-08 01:41:00,44.0,42.9,30.01,NW,315,19.0,22.0,96,0.00,,---,0.00,VWS V14.00,2013-02-08 07:41:00,
2013-02-08 01:46:00,44.0,42.9,30.01,NNW,338,19.0,26.0,96,0.00,,---,0.00,VWS V14.00,2013-02-08 07:46:00,
2013-02-08 01:51:00,44.0,42.9,30.01,North,0,15.0,23.0,96,0.00,,---,0.00,VWS V14.00,2013-02-08 07:51:00,
2013-02-08 01:56:00,44.0,42.9,30.01,North,0,11.0,19.0,96,0.00,,---,0.00,VWS V14.00,2013-02-08 07:56:00,
2013-02-08 02:01:00,43.0,41.9,30.02,NNW,338,18.0,23.0,96,0.00,,---,0.00,VWS V14.00,2013-02-08 08:01:00,
2013-02-08 02:06:00,43.0,41.9,30.02,NNW,338,14.0,22.0,96,0.00,,---,0.00,VWS V14.00,2013-02-08 08:06:00,
2013-02-08 02:11:00,43.0,41.9,30.02,North,0,17.0,25.0,96,0.00,,---,0.00,VWS V14.00,2013-02-08 08:11:00,
2013-02-08 02:16:00,43.0,41.9,30.03,NW,315,16.0,20.0,96,0.00,,---,0.00,VWS V14.00,2013-02-08 08:16:00,
2013-02-08 02:21:00,43.0,41.9,30.03,NW,315,15.0,16.0,96,0.00,,---,0.00,VWS V14.00,2013-02-08 08:21:00,
2013-02-08 02:26:00,43.0,41.9,30.03,NNE,22,11.0,16.0,96,0.00,,---,0.00,VWS V14.00,2013-02-08 08:26:00,
2013-02-08 02:31:00,43.0,41.9,30.03,NW,315,11.0,19.0,96,0.00,,---,0.00,VWS V14.00,2013-02-08 08:31:00,
2013-02-08 02:36:00,43.0,41.7,30.03,ENE,68,6.0,13.0,95,0.00,,---,0.00,VWS V14.00,2013-02-08 08:36:00,
2013-02-08 02:41:00,43.0,41.7,30.03,WNW,292,8.0,13.0,95,0.00,,---,0.00,VWS V14.00,2013-02-08 08:41:00,
2013-02-08 02:46:00,43.0,41.7,30.03,NNE,22,5.0,14.0,95,0.00,,---,0.00,VWS V14.00,2013-02-08 08:46:00,
2013-02-08 02:51:00,42.0,40.7,30.03,NNW,338,14.0,16.0,95,0.00,,---,0.00,VWS V14.00,2013-02-08 08:51:00,
2013-02-08 02:56:00,42.0,40.7,30.03,NW,315,7.0,13.0,95,0.00,,---,0.00,VWS V14.00,2013-02-08 08:56:00,
2013-02-08 03:01:00,42.0,40.7,30.04,NNW,338,14.0,16.0,95,0.00,,---,0.00,VWS V14.00,2013-02-08 09:01:00,
2013-02-08 03:06:00,42.0,40.4,30.04,WNW,292,13.0,15.0,94,0.00,,---,0.00,VWS V14.00,2013-02-08 09:06:00,
2013-02-08 03:10:00,42.0,40.4,30.05,NNW,338,6.0,11.0,94,0.00,,---,0.00,VWS V14.00,2013-02-08 09:10:00,
2013-02-08 03:15:00,42.0,40.7,30.05,North,0,14.0,14.0,95,0.00,,---,0.00,VWS V14.00,2013-02-08 09:15:00,
2013-02-08 03:20:00,42.0,40.7,30.05,NNW,338,16.0,18.0,95,0.00,,---,0.00,VWS V14.00,2013-02-08 09:20:00,
2013-02-08 03:25:00,42.0,40.7,30.06,NNW,338,11.0,11.0,95,0.00,,---,0.00,VWS V14.00,2013-02-08 09:25:00,
2013-02-08 03:30:00,42.0,40.7,30.05,NNW,338,18.0,23.0,95,0.00,,---,0.00,VWS V14.00,2013-02-08 09:30:00,
2013-02-08 03:35:00,42.0,40.4,30.06,NNW,338,11.0,19.0,94,0.00,,---,0.00,VWS V14.00,2013-02-08 09:35:00,
2013-02-08 03:40:00,42.0,40.4,30.06,NW,315,19.0,23.0,94,0.00,,---,0.00,VWS V14.00,2013-02-08 09:40:00,
2013-02-08 03:45:00,42.0,40.4,30.06,NNW,338,20.0,21.0,94,0.00,,---,0.00,VWS V14.00,2013-02-08 09:45:00,
2013-02-08 03:50:00,42.0,40.1,30.07,NNW,338,13.0,13.0,93,0.00,,---,0.00,VWS V14.00,2013-02-08 09:50:00,
2013-02-08 03:55:00,42.0,40.1,30.07,WNW,292,8.0,14.0,93,0.00,,---,0.00,VWS V14.00,2013-02-08 09:55:00,
2013-02-08 04:00:00,41.0,39.1,30.07,NNW,338,26.0,27.0,93,0.00,,---,0.00,VWS V14.00,2013-02-08 10:00:00,
2013-02-08 04:05:00,41.0,38.9,30.07,NE,45,9.0,21.0,92,0.00,,---,0.00,VWS V14.00,2013-02-08 10:05:00,
2013-02-08 04:10:00,41.0,38.9,30.07,NNW,338,20.0,24.0,92,0.00,,---,0.00,VWS V14.00,2013-02-08 10:10:00,
2013-02-08 04:15:00,41.0,38.9,30.08,NNW,338,15.0,21.0,92,0.00,,---,0.00,VWS V14.00,2013-02-08 10:15:00,
2013-02-08 04:20:00,41.0,38.9,30.08,NW,315,13.0,18.0,92,0.00,,---,0.00,VWS V14.00,2013-02-08 10:20:00,
2013-02-08 04:25:00,41.0,38.9,30.08,NNW,338,17.0,21.0,92,0.00,,---,0.00,VWS V14.00,2013-02-08 10:25:00,
2013-02-08 04:30:00,41.0,38.9,30.08,NW,315,22.0,24.0,92,0.00,,---,0.00,VWS V14.00,2013-02-08 10:30:00,
2013-02-08 04:35:00,40.0,37.9,30.09,NW,315,19.0,22.0,92,0.00,,---,0.00,VWS V14.00,2013-02-08 10:35:00,
2013-02-08 04:40:00,40.0,37.9,30.09,North,0,8.0,23.0,92,0.00,,---,0.00,VWS V14.00,2013-02-08 10:40:00,
2013-02-08 04:45:00,40.0,37.9,30.09,NNW,338,23.0,23.0,92,0.00,,---,0.00,VWS V14.00,2013-02-08 10:45:00,
2013-02-08 04:50:00,40.0,37.9,30.10,NNW,338,19.0,24.0,92,0.00,,---,0.00,VWS V14.00,2013-02-08 10:50:00,
2013-02-08 04:55:00,40.0,37.9,30.10,NW,315,13.0,19.0,92,0.00,,---,0.00,VWS V14.00,2013-02-08 10:55:00,
2013-02-08 05:00:00,40.0,37.9,30.10,NNW,338,13.0,19.0,92,0.00,,---,0.00,VWS V14.00,2013-02-08 11:00:00,
2013-02-08 05:05:00,40.0,38.1,30.11,NNW,338,17.0,20.0,93,0.00,,---,0.00,VWS V14.00,2013-02-08 11:05:00,
2013-02-08 05:10:00,40.0,38.1,30.11,NW,315,17.0,20.0,93,0.00,,---,0.00,VWS V14.00,2013-02-08 11:10:00,
2013-02-08 05:15:00,40.0,38.1,30.12,NNW,338,24.0,27.0,93,0.00,,---,0.00,VWS V14.00,2013-02-08 11:15:00,
2013-02-08 05:20:00,40.0,38.1,30.12,NNW,338,21.0,21.0,93,0.00,,---,0.00,VWS V14.00,2013-02-08 11:20:00,
2013-02-08 05:25:00,39.0,37.2,30.13,NW,315,11.0,19.0,93,0.00,,---,0.00,VWS V14.00,2013-02-08 11:25:00,
2013-02-08 05:30:00,39.0,37.2,30.13,WSW,248,10.0,19.0,93,0.00,,---,0.00,VWS V14.00,2013-02-08 11:30:00,
2013-02-08 05:35:00,39.0,37.2,30.13,NW,315,17.0,24.0,93,0.00,,---,0.00,VWS V14.00,2013-02-08 11:35:00,
2013-02-08 05:40:00,39.0,37.2,30.13,NE,45,12.0,21.0,93,0.00,,---,0.00,VWS V14.00,2013-02-08 11:40:00,
2013-02-08 05:45:00,39.0,37.2,30.14,WNW,292,13.0,20.0,93,0.00,,---,0.00,VWS V14.00,2013-02-08 11:45:00,
2013-02-08 05:50:00,39.0,37.2,30.14,NW,315,23.0,25.0,93,0.00,,---,0.00,VWS V14.00,2013-02-08 11:50:00,
2013-02-08 05:55:00,39.0,36.9,30.14,NNW,338,23.0,24.0,92,0.00,,---,0.00,VWS V14.00,2013-02-08 11:55:00,
2013-02-08 06:00:00,39.0,36.9,30.15,NW,315,13.0,22.0,92,0.00,,---,0.00,VWS V14.00,2013-02-08 12:00:00,
2013-02-08 06:05:00,39.0,36.9,30.15,NNW,338,16.0,17.0,92,0.00,,---,0.00,VWS V14.00,2013-02-08 12:05:00,
2013-02-08 06:10:00,38.0,36.2,30.15,NW,315,16.0,18.0,93,0.00,,---,0.00,VWS V14.00,2013-02-08 12:10:00,
2013-02-08 06:15:00,38.0,36.2,30.15,NNW,338,20.0,20.0,93,0.00,,---,0.00,VWS V14.00,2013-02-08 12:15:00,
2013-02-08 06:20:00,38.0,36.2,30.16,NNW,338,17.0,23.0,93,0.00,,---,0.00,VWS V14.00,2013-02-08 12:20:00,
2013-02-08 06:25:00,38.0,36.2,30.16,NNW,338,19.0,23.0,93,0.00,,---,0.00,VWS V14.00,2013-02-08 12:25:00,
2013-02-08 06:30:00,38.0,36.2,30.17,NW,315,13.0,14.0,93,0.00,,---,0.00,VWS V14.00,2013-02-08 12:30:00,
2013-02-08 06:35:00,38.0,35.9,30.17,NW,315,16.0,23.0,92,0.00,,---,0.00,VWS V14.00,2013-02-08 12:35:00,
2013-02-08 06:40:00,38.0,36.2,30.17,NNW,338,17.0,20.0,93,0.00,,---,0.00,VWS V14.00,2013-02-08 12:40:00,
2013-02-08 06:45:00,38.0,35.9,30.17,WNW,292,6.0,11.0,92,0.00,,---,0.00,VWS V14.00,2013-02-08 12:45:00,
2013-02-08 06:50:00,38.0,35.9,30.18,NW,315,13.0,18.0,92,0.00,,---,0.00,VWS V14.00,2013-02-08 12:50:00,
2013-02-08 06:55:00,38.0,35.9,30.18,NNW,338,13.0,19.0,92,0.00,,---,0.00,VWS V14.00,2013-02-08 12:55:00,
2013-02-08 07:00:00,38.0,35.9,30.19,NW,315,12.0,18.0,92,0.00,,---,0.00,VWS V14.00,2013-02-08 13:00:00,
2013-02-08 07:05:00,38.0,35.9,30.19,NW,315,11.0,14.0,92,0.00,,---,0.00,VWS V14.00,2013-02-08 13:05:00,
2013-02-08 07:10:00,38.0,35.9,30.19,NNW,338,16.0,17.0,92,0.00,,---,0.00,VWS V14.00,2013-02-08 13:10:00,
2013-02-08 07:15:00,38.0,35.9,30.20,NW,315,14.0,21.0,92,0.00,,---,0.00,VWS V14.00,2013-02-08 13:15:00,
2013-02-08 07:20:00,38.0,35.6,30.20,NW,315,11.0,15.0,91,0.00,,---,0.00,VWS V14.00,2013-02-08 13:20:00,
2013-02-08 07:25:00,38.0,35.6,30.20,NNW,338,13.0,19.0,91,0.00,,---,0.00,VWS V14.00,2013-02-08 13:25:00,
2013-02-08 07:30:00,38.0,35.6,30.20,North,0,11.0,21.0,91,0.00,,---,0.00,VWS V14.00,2013-02-08 13:30:00,
2013-02-08 07:35:00,38.0,35.6,30.21,North,0,19.0,27.0,91,0.00,,---,0.00,VWS V14.00,2013-02-08 13:35:00,
2013-02-08 07:40:00,38.0,35.6,30.22,NNW,338,21.0,24.0,91,0.00,,---,0.00,VWS V14.00,2013-02-08 13:40:00,
2013-02-08 07:45:00,38.0,35.6,30.22,NW,315,23.0,25.0,91,0.00,,---,0.00,VWS V14.00,2013-02-08 13:45:00,
2013-02-08 07:50:00,38.0,35.6,30.23,NW,315,14.0,16.0,91,0.00,,---,0.00,VWS V14.00,2013-02-08 13:50:00,
2013-02-08 07:55:00,38.0,35.6,30.23,NNW,338,18.0,21.0,91,0.00,,---,0.00,VWS V14.00,2013-02-08 13:55:00,
2013-02-08 08:00:00,38.0,35.6,30.24,NNW,338,10.0,18.0,91,0.00,,---,0.00,VWS V14.00,2013-02-08 14:00:00,
2013-02-08 08:05:00,37.0,34.6,30.24,NW,315,16.0,20.0,91,0.00,,---,0.00,VWS V14.00,2013-02-08 14:05:00,
2013-02-08 08:10:00,37.0,34.6,30.24,NNW,338,23.0,26.0,91,0.00,,---,0.00,VWS V14.00,2013-02-08 14:10:00,
2013-02-08 08:15:00,38.0,35.6,30.24,NW,315,17.0,18.0,91,0.00,,---,0.00,VWS V14.00,2013-02-08 14:15:00,
2013-02-08 08:20:00,38.0,35.3,30.24,NNW,338,19.0,19.0,90,0.00,,---,0.00,VWS V14.00,2013-02-08 14:20:00,
2013-02-08 08:25:00,37.0,34.6,30.25,NW,315,19.0,23.0,91,0.00,,---,0.00,VWS V14.00,2013-02-08 14:25:00,
2013-02-08 08:30:00,37.0,34.3,30.25,NW,315,17.0,21.0,90,0.00,,---,0.00,VWS V14.00,2013-02-08 14:30:00,
2013-02-08 08:35:00,38.0,35.3,30.25,NW,315,15.0,21.0,90,0.00,,---,0.00,VWS V14.00,2013-02-08 14:35:00,
2013-02-08 08:40:00,37.0,34.3,30.25,NW,315,16.0,19.0,90,0.00,,---,0.00,VWS V14.00,2013-02-08 14:40:00,
2013-02-08 08:45:00,37.0,34.1,30.25,NNW,338,22.0,23.0,89,0.00,,---,0.00,VWS V14.00,2013-02-08 14:45:00,
2013-02-08 08:50:00,37.0,34.1,30.26,NNW,338,23.0,25.0,89,0.00,,---,0.00,VWS V14.00,2013-02-08 14:50:00,
2013-02-08 08:55:00,37.0,34.3,30.26,NW,315,21.0,21.0,90,0.00,,---,0.00,VWS V14.00,2013-02-08 14:55:00,
2013-02-08 09:00:00,37.0,34.3,30.26,NNW,338,17.0,19.0,90,0.00,,---,0.00,VWS V14.00,2013-02-08 15:00:00,
2013-02-08 09:05:00,37.0,34.6,30.27,NNW,338,15.0,17.0,91,0.00,,---,0.00,VWS V14.00,2013-02-08 15:05:00,
2013-02-08 09:10:00,37.0,34.6,30.27,NNW,338,19.0,19.0,91,0.00,,---,0.00,VWS V14.00,2013-02-08 15:10:00,
2013-02-08 09:15:00,37.0,34.6,30.27,WSW,248,5.0,13.0,91,0.00,,---,0.00,VWS V14.00,2013-02-08 15:15:00,
2013-02-08 09:20:00,37.0,34.6,30.27,NNW,338,23.0,23.0,91,0.00,,---,0.00,VWS V14.00,2013-02-08 15:20:00,
2013-02-08 09:25:00,37.0,34.6,30.27,NNW,338,17.0,20.0,91,0.00,,---,0.00,VWS V14.00,2013-02-08 15:25:00,
2013-02-08 09:30:00,37.0,34.3,30.27,NW,315,21.0,23.0,90,0.00,,---,0.00,VWS V14.00,2013-02-08 15:30:00,
2013-02-08 09:35:00,37.0,34.3,30.28,NNW,338,18.0,18.0,90,0.00,,---,0.00,VWS V14.00,2013-02-08 15:35:00,
2013-02-08 09:40:00,36.0,33.4,30.28,NW,315,12.0,21.0,90,0.00,,---,0.00,VWS V14.00,2013-02-08 15:40:00,
2013-02-08 09:45:00,36.0,33.4,30.28,NW,315,19.0,21.0,90,0.00,,---,0.00,VWS V14.00,2013-02-08 15:45:00,
2013-02-08 09:50:00,37.0,34.3,30.28,NNW,338,13.0,18.0,90,0.00,,---,0.00,VWS V14.00,2013-02-08 15:50:00,
2013-02-08 09:55:00,36.0,33.4,30.28,NNW,338,26.0,26.0,90,0.00,,---,0.00,VWS V14.00,2013-02-08 15:55:00,
2013-02-08 10:00:00,36.0,33.1,30.28,NW,315,13.0,22.0,89,0.00,,---,0.00,VWS V14.00,2013-02-08 16:00:00,
2013-02-08 10:05:00,36.0,32.5,30.28,NW,315,19.0,23.0,87,0.00,,---,0.00,VWS V14.00,2013-02-08 16:05:00,
2013-02-08 10:10:00,37.0,33.5,30.29,SW,225,8.0,16.0,87,0.00,,---,0.00,VWS V14.00,2013-02-08 16:10:00,
2013-02-08 10:15:00,37.0,33.2,30.29,NNW,338,20.0,22.0,86,0.00,,---,0.00,VWS V14.00,2013-02-08 16:15:00,
2013-02-08 10:20:00,37.0,33.2,30.29,North,0,12.0,16.0,86,0.00,,---,0.00,VWS V14.00,2013-02-08 16:20:00,
2013-02-08 10:25:00,37.0,33.2,30.29,NNW,338,26.0,29.0,86,0.00,,---,0.00,VWS V14.00,2013-02-08 16:25:00,
2013-02-08 10:30:00,37.0,32.9,30.30,NNW,338,17.0,21.0,85,0.00,,---,0.00,VWS V14.00,2013-02-08 16:30:00,
2013-02-08 10:35:00,38.0,33.9,30.30,NW,315,12.0,14.0,85,0.00,,---,0.00,VWS V14.00,2013-02-08 16:35:00,
2013-02-08 10:40:00,37.0,33.2,30.29,SSE,158,6.0,21.0,86,0.00,,---,0.00,VWS V14.00,2013-02-08 16:40:00,
2013-02-08 10:45:00,37.0,32.9,30.30,WNW,292,8.0,14.0,85,0.00,,---,0.00,VWS V14.00,2013-02-08 16:45:00,
2013-02-08 10:50:00,37.0,32.9,30.30,NW,315,12.0,19.0,85,0.00,,---,0.00,VWS V14.00,2013-02-08 16:50:00,
2013-02-08 10:55:00,38.0,33.9,30.30,NNW,338,10.0,14.0,85,0.00,,---,0.00,VWS V14.00,2013-02-08 16:55:00,
2013-02-08 11:00:00,38.0,33.9,30.30,NNW,338,8.0,14.0,85,0.00,,---,0.00,VWS V14.00,2013-02-08 17:00:00,
2013-02-08 11:05:00,38.0,33.6,30.30,NNW,338,13.0,16.0,84,0.00,,---,0.00,VWS V14.00,2013-02-08 17:05:00,
2013-02-08 11:10:00,38.0,33.6,30.30,NNW,338,13.0,14.0,84,0.00,,---,0.00,VWS V14.00,2013-02-08 17:10:00,
2013-02-08 11:15:00,38.0,33.6,30.30,North,0,11.0,18.0,84,0.00,,---,0.00,VWS V14.00,2013-02-08 17:15:00,
2013-02-08 11:20:00,38.0,33.3,30.30,WNW,292,7.0,14.0,83,0.00,,---,0.00,VWS V14.00,2013-02-08 17:20:00,
2013-02-08 11:25:00,38.0,33.6,30.30,NNW,338,10.0,16.0,84,0.00,,---,0.00,VWS V14.00,2013-02-08 17:25:00,
2013-02-08 11:30:00,38.0,33.3,30.30,NW,315,13.0,17.0,83,0.00,,---,0.00,VWS V14.00,2013-02-08 17:30:00,
2013-02-08 11:35:00,39.0,34.6,30.31,NNW,338,5.0,12.0,84,0.00,,---,0.00,VWS V14.00,2013-02-08 17:35:00,
2013-02-08 11:40:00,38.0,33.3,30.30,North,0,13.0,21.0,83,0.00,,---,0.00,VWS V14.00,2013-02-08 17:40:00,
2013-02-08 11:45:00,38.0,33.3,30.31,NW,315,16.0,21.0,83,0.00,,---,0.00,VWS V14.00,2013-02-08 17:45:00,
2013-02-08 11:50:00,38.0,33.3,30.31,WNW,292,9.0,14.0,83,0.00,,---,0.00,VWS V14.00,2013-02-08 17:50:00,
2013-02-08 11:55:00,38.0,33.3,30.31,NW,315,13.0,19.0,83,0.00,,---,0.00,VWS V14.00,2013-02-08 17:55:00,
2013-02-08 12:00:00,39.0,34.3,30.31,ENE,68,5.0,15.0,83,0.00,,---,0.00,VWS V14.00,2013-02-08 18:00:00,
2013-02-08 12:05:00,39.0,34.3,30.30,WNW,292,8.0,11.0,83,0.00,,---,0.00,VWS V14.00,2013-02-08 18:05:00,
2013-02-08 12:10:00,39.0,34.0,30.30,SSW,202,5.0,10.0,82,0.00,,---,0.00,VWS V14.00,2013-02-08 18:10:00,
2013-02-08 12:15:00,39.0,34.0,30.30,South,180,3.0,8.0,82,0.00,,---,0.00,VWS V14.00,2013-02-08 18:15:00,
2013-02-08 12:20:00,39.0,33.7,30.30,SSE,158,5.0,8.0,81,0.00,,---,0.00,VWS V14.00,2013-02-08 18:20:00,
2013-02-08 12:25:00,39.0,34.0,30.30,NNW,338,16.0,16.0,82,0.00,,---,0.00,VWS V14.00,2013-02-08 18:25:00,
2013-02-08 12:30:00,39.0,33.7,30.30,NW,315,12.0,13.0,81,0.00,,---,0.00,VWS V14.00,2013-02-08 18:30:00,
2013-02-08 12:35:00,40.0,34.3,30.30,NW,315,18.0,18.0,80,0.00,,---,0.00,VWS V14.00,2013-02-08 18:35:00,
2013-02-08 12:40:00,40.0,34.3,30.30,NNW,338,14.0,21.0,80,0.00,,---,0.00,VWS V14.00,2013-02-08 18:40:00,
2013-02-08 12:45:00,39.0,32.7,30.29,NNW,338,14.0,16.0,78,0.00,,---,0.00,VWS V14.00,2013-02-08 18:45:00,
2013-02-08 12:50:00,41.0,35.0,30.29,NE,45,9.0,16.0,79,0.00,,---,0.00,VWS V14.00,2013-02-08 18:50:00,
2013-02-08 12:55:00,41.0,33.7,30.29,NNW,338,6.0,11.0,75,0.00,,---,0.00,VWS V14.00,2013-02-08 18:55:00,
2013-02-08 13:00:00,41.0,33.7,30.29,SE,135,6.0,11.0,75,0.00,,---,0.00,VWS V14.00,2013-02-08 19:00:00,
2013-02-08 13:05:00,41.0,33.7,30.29,NW,315,8.0,17.0,75,0.00,,---,0.00,VWS V14.00,2013-02-08 19:05:00,
2013-02-08 13:10:00,41.0,33.7,30.30,South,180,8.0,8.0,75,0.00,,---,0.00,VWS V14.00,2013-02-08 19:10:00,
2013-02-08 13:15:00,41.0,33.7,30.30,NNW,338,10.0,15.0,75,0.00,,---,0.00,VWS V14.00,2013-02-08 19:15:00,
2013-02-08 13:20:00,42.0,34.7,30.30,NNE,22,7.0,12.0,75,0.00,,---,0.00,VWS V14.00,2013-02-08 19:20:00,
2013-02-08 13:25:00,41.0,33.4,30.30,NW,315,11.0,14.0,74,0.00,,---,0.00,VWS V14.00,2013-02-08 19:25:00,
2013-02-08 13:30:00,41.0,34.0,30.30,NNW,338,15.0,18.0,76,0.00,,---,0.00,VWS V14.00,2013-02-08 19:30:00,
2013-02-08 13:35:00,40.0,32.7,30.29,NW,315,10.0,19.0,75,0.00,,---,0.00,VWS V14.00,2013-02-08 19:35:00,
2013-02-08 13:40:00,42.0,35.0,30.29,WNW,292,6.0,11.0,76,0.00,,---,0.00,VWS V14.00,2013-02-08 19:40:00,
2013-02-08 13:45:00,41.0,33.4,30.29,NNW,338,19.0,19.0,74,0.00,,---,0.00,VWS V14.00,2013-02-08 19:45:00,
2013-02-08 13:50:00,42.0,34.7,30.29,NW,315,12.0,15.0,75,0.00,,---,0.00,VWS V14.00,2013-02-08 19:50:00,
2013-02-08 13:55:00,42.0,34.3,30.29,WNW,292,10.0,13.0,74,0.00,,---,0.00,VWS V14.00,2013-02-08 19:55:00,
2013-02-08 14:00:00,42.0,33.6,30.29,SW,225,5.0,13.0,72,0.00,,---,0.00,VWS V14.00,2013-02-08 20:00:00,
2013-02-08 14:06:00,42.0,33.6,30.29,SSE,158,6.0,8.0,72,0.00,,---,0.00,VWS V14.00,2013-02-08 20:06:00,
2013-02-08 14:11:00,42.0,33.6,30.29,NE,45,5.0,12.0,72,0.00,,---,0.00,VWS V14.00,2013-02-08 20:11:00,
2013-02-08 14:16:00,42.0,33.6,30.29,NNW,338,10.0,10.0,72,0.00,,---,0.00,VWS V14.00,2013-02-08 20:16:00,
2013-02-08 14:21:00,41.0,32.7,30.29,NNW,338,10.0,15.0,72,0.00,,---,0.00,VWS V14.00,2013-02-08 20:21:00,
2013-02-08 14:26:00,41.0,33.0,30.29,North,0,5.0,12.0,73,0.00,,---,0.00,VWS V14.00,2013-02-08 20:26:00,
2013-02-08 14:31:00,42.0,34.3,30.29,NNW,338,13.0,15.0,74,0.00,,---,0.00,VWS V14.00,2013-02-08 20:31:00,
2013-02-08 14:36:00,42.0,33.6,30.29,NW,315,7.0,12.0,72,0.00,,---,0.00,VWS V14.00,2013-02-08 20:36:00,
2013-02-08 14:40:00,41.0,32.7,30.29,NNW,338,12.0,13.0,72,0.00,,---,0.00,VWS V14.00,2013-02-08 20:40:00,
2013-02-08 14:45:00,41.0,33.0,30.30,NNW,338,15.0,16.0,73,0.00,,---,0.00,VWS V14.00,2013-02-08 20:45:00,
2013-02-08 14:50:00,42.0,34.0,30.30,NNW,338,18.0,18.0,73,0.00,,---,0.00,VWS V14.00,2013-02-08 20:50:00,
2013-02-08 14:56:00,41.0,33.4,30.30,NNW,338,16.0,18.0,74,0.00,,---,0.00,VWS V14.00,2013-02-08 20:56:00,
2013-02-08 15:01:00,41.0,33.0,30.30,WNW,292,10.0,16.0,73,0.00,,---,0.00,VWS V14.00,2013-02-08 21:01:00,
2013-02-08 15:06:00,41.0,33.0,30.30,ESE,112,5.0,10.0,73,0.00,,---,0.00,VWS V14.00,2013-02-08 21:06:00,
2013-02-08 15:11:00,41.0,32.7,30.30,NNW,338,8.0,8.0,72,0.00,,---,0.00,VWS V14.00,2013-02-08 21:11:00,
2013-02-08 15:16:00,42.0,33.6,30.30,NNW,338,14.0,19.0,72,0.00,,---,0.00,VWS V14.00,2013-02-08 21:16:00,
2013-02-08 15:20:00,41.0,32.7,30.31,NNW,338,13.0,17.0,72,0.00,,---,0.00,VWS V14.00,2013-02-08 21:20:00,
2013-02-08 15:25:00,41.0,32.7,30.31,NNE,22,9.0,11.0,72,0.00,,---,0.00,VWS V14.00,2013-02-08 21:25:00,
2013-02-08 15:31:00,42.0,33.3,30.31,SW,225,6.0,8.0,71,0.00,,---,0.00,VWS V14.00,2013-02-08 21:31:00,
2013-02-08 15:35:00,41.0,32.3,30.31,WSW,248,7.0,10.0,71,0.00,,---,0.00,VWS V14.00,2013-02-08 21:35:00,
2013-02-08 15:41:00,41.0,32.7,30.31,WSW,248,6.0,8.0,72,0.00,,---,0.00,VWS V14.00,2013-02-08 21:41:00,
2013-02-08 15:46:00,41.0,33.0,30.31,WNW,292,8.0,8.0,73,0.00,,---,0.00,VWS V14.00,2013-02-08 21:46:00,
2013-02-08 15:51:00,40.0,32.1,30.31,NNW,338,4.0,10.0,73,0.00,,---,0.00,VWS V14.00,2013-02-08 21:51:00,
2013-02-08 15:56:00,41.0,33.4,30.31,East,90,6.0,11.0,74,0.00,,---,0.00,VWS V14.00,2013-02-08 21:56:00,
2013-02-08 16:01:00,41.0,33.0,30.32,SSW,202,6.0,9.0,73,0.00,,---,0.00,VWS V14.00,2013-02-08 22:01:00,
2013-02-08 16:06:00,41.0,32.3,30.32,SSW,202,4.0,8.0,71,0.00,,---,0.00,VWS V14.00,2013-02-08 22:06:00,
2013-02-08 16:11:00,40.0,32.1,30.32,NNE,22,7.0,12.0,73,0.00,,---,0.00,VWS V14.00,2013-02-08 22:11:00,
2013-02-08 16:16:00,39.0,31.4,30.31,SW,225,6.0,8.0,74,0.00,,---,0.00,VWS V14.00,2013-02-08 22:16:00,
2013-02-08 16:21:00,39.0,31.4,30.31,North,0,8.0,14.0,74,0.00,,---,0.00,VWS V14.00,2013-02-08 22:21:00,
2013-02-08 16:26:00,39.0,31.8,30.31,North,0,5.0,6.0,75,0.00,,---,0.00,VWS V14.00,2013-02-08 22:26:00,
2013-02-08 16:31:00,39.0,31.8,30.32,NE,45,4.0,11.0,75,0.00,,---,0.00,VWS V14.00,2013-02-08 22:31:00,
2013-02-08 16:36:00,39.0,31.8,30.32,NNE,22,8.0,8.0,75,0.00,,---,0.00,VWS V14.00,2013-02-08 22:36:00,
2013-02-08 16:41:00,39.0,32.1,30.33,East,90,2.0,10.0,76,0.00,,---,0.00,VWS V14.00,2013-02-08 22:41:00,
2013-02-08 16:45:00,38.0,31.1,30.33,East,90,5.0,11.0,76,0.00,,---,0.00,VWS V14.00,2013-02-08 22:45:00,
2013-02-08 16:50:00,38.0,31.1,30.34,South,180,3.0,7.0,76,0.00,,---,0.00,VWS V14.00,2013-02-08 22:50:00,
2013-02-08 16:55:00,38.0,31.1,30.34,SSE,158,5.0,6.0,76,0.00,,---,0.00,VWS V14.00,2013-02-08 22:55:00,
2013-02-08 17:00:00,38.0,31.4,30.35,WSW,248,3.0,4.0,77,0.00,,---,0.00,VWS V14.00,2013-02-08 23:00:00,
2013-02-08 17:05:00,38.0,31.4,30.35,NNE,22,5.0,8.0,77,0.00,,---,0.00,VWS V14.00,2013-02-08 23:05:00,
2013-02-08 17:10:00,38.0,31.8,30.35,South,180,3.0,5.0,78,0.00,,---,0.00,VWS V14.00,2013-02-08 23:10:00,
2013-02-08 17:16:00,38.0,31.8,30.36,NNE,22,3.0,10.0,78,0.00,,---,0.00,VWS V14.00,2013-02-08 23:16:00,
2013-02-08 17:20:00,38.0,31.8,30.36,NW,315,6.0,6.0,78,0.00,,---,0.00,VWS V14.00,2013-02-08 23:20:00,
2013-02-08 17:25:00,37.0,30.8,30.37,East,90,3.0,7.0,78,0.00,,---,0.00,VWS V14.00,2013-02-08 23:25:00,
2013-02-08 17:30:00,37.0,31.1,30.38,NNW,338,7.0,10.0,79,0.00,,---,0.00,VWS V14.00,2013-02-08 23:30:00,
2013-02-08 17:35:00,37.0,31.4,30.39,NW,315,11.0,12.0,80,0.00,,---,0.00,VWS V14.00,2013-02-08 23:35:00,
2013-02-08 17:40:00,37.0,31.1,30.38,NNW,338,12.0,13.0,79,0.00,,---,0.00,VWS V14.00,2013-02-08 23:40:00,
2013-02-08 17:45:00,37.0,31.4,30.38,NNW,338,10.0,11.0,80,0.00,,---,0.00,VWS V14.00,2013-02-08 23:45:00,
2013-02-08 17:50:00,37.0,31.4,30.37,NW,315,8.0,11.0,80,0.00,,---,0.00,VWS V14.00,2013-02-08 23:50:00,
2013-02-08 17:55:00,37.0,31.4,30.36,NW,315,12.0,13.0,80,0.00,,---,0.00,VWS V14.00,2013-02-08 23:55:00,
2013-02-08 18:00:00,37.0,31.4,30.37,NNW,338,10.0,11.0,80,0.00,,---,0.00,VWS V14.00,2013-02-09 00:00:00,
2013-02-08 18:05:00,37.0,31.7,30.37,North,0,6.0,10.0,81,0.00,,---,0.00,VWS V14.00,2013-02-09 00:05:00,
2013-02-08 18:10:00,37.0,32.0,30.37,SE,135,4.0,6.0,82,0.00,,---,0.00,VWS V14.00,2013-02-09 00:10:00,
2013-02-08 18:15:00,36.0,31.0,30.38,North,0,5.0,6.0,82,0.00,,---,0.00,VWS V14.00,2013-02-09 00:15:00,
2013-02-08 18:20:00,36.0,30.8,30.38,ESE,112,2.0,9.0,81,0.00,,---,0.00,VWS V14.00,2013-02-09 00:20:00,
2013-02-08 18:25:00,36.0,30.8,30.38,ESE,112,2.0,5.0,81,0.00,,---,0.00,VWS V14.00,2013-02-09 00:25:00,
2013-02-08 18:30:00,36.0,30.4,30.38,ENE,68,5.0,10.0,80,0.00,,---,0.00,VWS V14.00,2013-02-09 00:30:00,
2013-02-08 18:35:00,36.0,30.4,30.38,North,0,5.0,10.0,80,0.00,,---,0.00,VWS V14.00,2013-02-09 00:35:00,
2013-02-08 18:40:00,36.0,30.4,30.37,NNE,22,12.0,14.0,80,0.00,,---,0.00,VWS V14.00,2013-02-09 00:40:00,
2013-02-08 18:45:00,36.0,30.4,30.36,NE,45,11.0,13.0,80,0.00,,---,0.00,VWS V14.00,2013-02-09 00:45:00,
2013-02-08 18:50:00,36.0,30.4,30.36,NNE,22,8.0,10.0,80,0.00,,---,0.00,VWS V14.00,2013-02-09 00:50:00,
2013-02-08 18:55:00,35.0,29.5,30.36,NE,45,9.0,12.0,80,0.00,,---,0.00,VWS V14.00,2013-02-09 00:55:00,
2013-02-08 19:00:00,35.0,29.5,30.35,NE,45,11.0,11.0,80,0.00,,---,0.00,VWS V14.00,2013-02-09 01:00:00,
2013-02-08 19:05:00,35.0,29.5,30.35,NNE,22,7.0,10.0,80,0.00,,---,0.00,VWS V14.00,2013-02-09 01:05:00,
2013-02-08 19:10:00,35.0,29.5,30.35,NE,45,6.0,9.0,80,0.00,,---,0.00,VWS V14.00,2013-02-09 01:10:00,
2013-02-08 19:15:00,35.0,29.5,30.35,NNW,338,6.0,15.0,80,0.00,,---,0.00,VWS V14.00,2013-02-09 01:15:00,
2013-02-08 19:20:00,35.0,29.5,30.34,NE,45,9.0,13.0,80,0.00,,---,0.00,VWS V14.00,2013-02-09 01:20:00,
2013-02-08 19:25:00,35.0,29.5,30.33,NNE,22,11.0,12.0,80,0.00,,---,0.00,VWS V14.00,2013-02-09 01:25:00,
2013-02-08 19:30:00,35.0,29.5,30.33,NE,45,8.0,12.0,80,0.00,,---,0.00,VWS V14.00,2013-02-09 01:30:00,
2013-02-08 19:35:00,35.0,29.8,30.33,ENE,68,6.0,9.0,81,0.00,,---,0.00,VWS V14.00,2013-02-09 01:35:00,
2013-02-08 19:40:00,35.0,29.8,30.34,NE,45,8.0,10.0,81,0.00,,---,0.00,VWS V14.00,2013-02-09 01:40:00,
2013-02-08 19:45:00,35.0,29.8,30.35,East,90,5.0,6.0,81,0.00,,---,0.00,VWS V14.00,2013-02-09 01:45:00,
2013-02-08 19:50:00,35.0,29.8,30.35,NE,45,11.0,11.0,81,0.00,,---,0.00,VWS V14.00,2013-02-09 01:50:00,
2013-02-08 19:55:00,35.0,29.8,30.36,NNE,22,8.0,9.0,81,0.00,,---,0.00,VWS V14.00,2013-02-09 01:55:00,
2013-02-08 20:00:00,35.0,30.1,30.36,NE,45,6.0,7.0,82,0.00,,---,0.00,VWS V14.00,2013-02-09 02:00:00,
2013-02-08 20:05:00,35.0,29.8,30.36,NNE,22,8.0,10.0,81,0.00,,---,0.00,VWS V14.00,2013-02-09 02:05:00,
2013-02-08 20:10:00,35.0,30.1,30.36,ENE,68,6.0,9.0,82,0.00,,---,0.00,VWS V14.00,2013-02-09 02:10:00,
2013-02-08 20:15:00,34.0,28.8,30.36,ENE,68,8.0,11.0,81,0.00,,---,0.00,VWS V14.00,2013-02-09 02:15:00,
2013-02-08 20:20:00,34.0,28.8,30.36,NE,45,12.0,13.0,81,0.00,,---,0.00,VWS V14.00,2013-02-09 02:20:00,
2013-02-08 20:25:00,34.0,28.8,30.37,NE,45,7.0,10.0,81,0.00,,---,0.00,VWS V14.00,2013-02-09 02:25:00,
2013-02-08 20:30:00,34.0,28.8,30.37,NE,45,10.0,13.0,81,0.00,,---,0.00,VWS V14.00,2013-02-09 02:30:00,
2013-02-08 20:35:00,34.0,28.8,30.37,ENE,68,5.0,7.0,81,0.00,,---,0.00,VWS V14.00,2013-02-09 02:35:00,
2013-02-08 20:40:00,34.0,28.8,30.37,NE,45,8.0,8.0,81,0.00,,---,0.00,VWS V14.00,2013-02-09 02:40:00,
2013-02-08 20:45:00,34.0,28.8,30.37,NNE,22,10.0,10.0,81,0.00,,---,0.00,VWS V14.00,2013-02-09 02:45:00,
2013-02-08 20:50:00,34.0,28.8,30.37,NE,45,8.0,9.0,81,0.00,,---,0.00,VWS V14.00,2013-02-09 02:50:00,
2013-02-08 20:55:00,34.0,28.8,30.37,ENE,68,6.0,7.0,81,0.00,,---,0.00,VWS V14.00,2013-02-09 02:55:00,
2013-02-08 21:00:00,34.0,28.8,30.37,NE,45,7.0,11.0,81,0.00,,---,0.00,VWS V14.00,2013-02-09 03:00:00,
2013-02-08 21:05:00,34.0,28.8,30.38,NE,45,6.0,9.0,81,0.00,,---,0.00,VWS V14.00,2013-02-09 03:05:00,
2013-02-08 21:10:00,34.0,29.1,30.38,NE,45,8.0,9.0,82,0.00,,---,0.00,VWS V14.00,2013-02-09 03:10:00,
2013-02-08 21:15:00,34.0,29.1,30.39,North,0,2.0,8.0,82,0.00,,---,0.00,VWS V14.00,2013-02-09 03:15:00,
2013-02-08 21:20:00,34.0,28.8,30.39,NE,45,8.0,10.0,81,0.00,,---,0.00,VWS V14.00,2013-02-09 03:20:00,
2013-02-08 21:25:00,34.0,28.8,30.39,NW,315,3.0,5.0,81,0.00,,---,0.00,VWS V14.00,2013-02-09 03:25:00,
2013-02-08 21:30:00,34.0,29.1,30.40,SSE,158,3.0,5.0,82,0.00,,---,0.00,VWS V14.00,2013-02-09 03:30:00,
2013-02-08 21:35:00,34.0,29.1,30.39,North,0,6.0,7.0,82,0.00,,---,0.00,VWS V14.00,2013-02-09 03:35:00,
2013-02-08 21:40:00,34.0,29.1,30.38,ENE,68,3.0,5.0,82,0.00,,---,0.00,VWS V14.00,2013-02-09 03:40:00,
2013-02-08 21:45:00,34.0,29.1,30.38,SE,135,3.0,8.0,82,0.00,,---,0.00,VWS V14.00,2013-02-09 03:45:00,
2013-02-08 21:50:00,34.0,29.1,30.37,NE,45,8.0,10.0,82,0.00,,---,0.00,VWS V14.00,2013-02-09 03:50:00,
2013-02-08 21:55:00,34.0,29.1,30.37,NW,315,5.0,9.0,82,0.00,,---,0.00,VWS V14.00,2013-02-09 03:55:00,
2013-02-08 22:00:00,34.0,29.4,30.38,NE,45,8.0,9.0,83,0.00,,---,0.00,VWS V14.00,2013-02-09 04:00:00,
2013-02-08 22:05:00,34.0,29.4,30.38,ENE,68,5.0,8.0,83,0.00,,---,0.00,VWS V14.00,2013-02-09 04:05:00,
2013-02-08 22:11:00,34.0,29.4,30.38,ENE,68,6.0,7.0,83,0.00,,---,0.00,VWS V14.00,2013-02-09 04:11:00,
2013-02-08 22:16:00,34.0,29.4,30.38,NE,45,6.0,8.0,83,0.00,,---,0.00,VWS V14.00,2013-02-09 04:16:00,
2013-02-08 22:21:00,34.0,29.4,30.38,ENE,68,8.0,8.0,83,0.00,,---,0.00,VWS V14.00,2013-02-09 04:21:00,
2013-02-08 22:26:00,33.0,28.4,30.38,ENE,68,9.0,11.0,83,0.00,,---,0.00,VWS V14.00,2013-02-09 04:26:00,
2013-02-08 22:31:00,33.0,28.1,30.38,ENE,68,5.0,7.0,82,0.00,,---,0.00,VWS V14.00,2013-02-09 04:31:00,
2013-02-08 22:36:00,33.0,28.1,30.38,ENE,68,10.0,13.0,82,0.00,,---,0.00,VWS V14.00,2013-02-09 04:36:00,
2013-02-08 22:41:00,33.0,28.1,30.38,NE,45,9.0,11.0,82,0.00,,---,0.00,VWS V14.00,2013-02-09 04:41:00,
2013-02-08 22:46:00,33.0,28.1,30.38,NNE,22,5.0,8.0,82,0.00,,---,0.00,VWS V14.00,2013-02-09 04:46:00,
2013-02-08 22:51:00,33.0,28.4,30.38,NE,45,7.0,10.0,83,0.00,,---,0.00,VWS V14.00,2013-02-09 04:51:00,
2013-02-08 22:56:00,33.0,28.4,30.38,NNE,22,9.0,9.0,83,0.00,,---,0.00,VWS V14.00,2013-02-09 04:56:00,
2013-02-08 23:00:00,33.0,28.4,30.39,NE,45,6.0,10.0,83,0.00,,---,0.00,VWS V14.00,2013-02-09 05:00:00,
2013-02-08 23:05:00,33.0,28.7,30.38,NE,45,10.0,11.0,84,0.00,,---,0.00,VWS V14.00,2013-02-09 05:05:00,
2013-02-08 23:10:00,33.0,28.7,30.38,NE,45,5.0,6.0,84,0.00,,---,0.00,VWS V14.00,2013-02-09 05:10:00,
2013-02-08 23:15:00,33.0,28.7,30.38,NE,45,6.0,8.0,84,0.00,,---,0.00,VWS V14.00,2013-02-09 05:15:00,
2013-02-08 23:20:00,33.0,28.7,30.39,NE,45,7.0,8.0,84,0.00,,---,0.00,VWS V14.00,2013-02-09 05:20:00,
2013-02-08 23:25:00,33.0,28.7,30.38,NE,45,7.0,8.0,84,0.00,,---,0.00,VWS V14.00,2013-02-09 05:25:00,
2013-02-08 23:30:00,33.0,28.7,30.38,ENE,68,5.0,6.0,84,0.00,,---,0.00,VWS V14.00,2013-02-09 05:30:00,
2013-02-08 23:35:00,33.0,28.7,30.38,ENE,68,6.0,6.0,84,0.00,,---,0.00,VWS V14.00,2013-02-09 05:35:00,
2013-02-08 23:40:00,32.0,27.7,30.38,ENE,68,5.0,5.0,84,0.00,,---,0.00,VWS V14.00,2013-02-09 05:40:00,
2013-02-08 23:45:00,32.0,27.7,30.39,East,90,8.0,9.0,84,0.00,,---,0.00,VWS V14.00,2013-02-09 05:45:00,
2013-02-08 23:50:00,32.0,27.7,30.38,NNE,22,6.0,7.0,84,0.00,,---,0.00,VWS V14.00,2013-02-09 05:50:00,
2013-02-08 23:55:00,32.0,27.7,30.38,NNE,22,5.0,6.0,84,0.00,,---,0.00,VWS V14.00,2013-02-09 05:55:00,